sensor_id;sensor_type;location;lat;lon;timestamp;pressure;altitude;pressure_sealevel;temperature;humidity
76404;BME280;65232;48.358;2.122;2024-03-06T00:00:21;101045.13;;;7.02;100.00
76404;BME280;65232;48.358;2.122;2024-03-06T00:00:46;101044.28;;;7.02;100.00
76404;BME280;65232;48.358;2.122;2024-03-06T00:01:11;101046.56;;;7.08;100.00
76404;BME280;65232;48.358;2.122;2024-03-06T00:01:37;101046.06;;;7.01;100.00
76404;BME280;65232;48.358;2.122;2024-03-06T00:02:02;101055.19;;;7.12;100.00
76404;BME280;65232;48.358;2.122;2024-03-06T00:02:28;101050.34;;;7.04;100.00
76404;BME280;65232;48.358;2.122;2024-03-06T00:02:53;101046.91;;;7.16;100.00
76404;BME280;65232;48.358;2.122;2024-03-06T00:03:19;101046.59;;;7.21;100.00
76404;BME280;65232;48.358;2.122;2024-03-06T00:03:44;101049.84;;;7.26;100.00
76404;BME280;65232;48.358;2.122;2024-03-06T00:04:10;101048.16;;;7.11;100.00
76404;BME280;65232;48.358;2.122;2024-03-06T00:04:35;101054.97;;;7.15;100.00
76404;BME280;65232;48.358;2.122;2024-03-06T00:05:01;101046.84;;;7.03;100.00
76404;BME280;65232;48.358;2.122;2024-03-06T00:05:26;101048.94;;;6.98;100.00
76404;BME280;65232;48.358;2.122;2024-03-06T00:05:51;101055.22;;;6.97;100.00
76404;BME280;65232;48.358;2.122;2024-03-06T00:06:17;101052.56;;;6.97;100.00
76404;BME280;65232;48.358;2.122;2024-03-06T00:06:42;101058.72;;;6.98;100.00
76404;BME280;65232;48.358;2.122;2024-03-06T00:07:08;101050.72;;;6.98;100.00
76404;BME280;65232;48.358;2.122;2024-03-06T00:07:33;101054.25;;;6.98;100.00
76404;BME280;65232;48.358;2.122;2024-03-06T00:07:59;101052.91;;;7.05;100.00
76404;BME280;65232;48.358;2.122;2024-03-06T00:08:26;101050.34;;;7.04;100.00
76404;BME280;65232;48.358;2.122;2024-03-06T00:08:53;101054.66;;;6.92;100.00
76404;BME280;65232;48.358;2.122;2024-03-06T00:09:18;101057.41;;;6.91;100.00
76404;BME280;65232;48.358;2.122;2024-03-06T00:09:44;101061.03;;;6.90;100.00
76404;BME280;65232;48.358;2.122;2024-03-06T00:10:09;101054.00;;;6.89;100.00
76404;BME280;65232;48.358;2.122;2024-03-06T00:10:35;101063.59;;;6.91;100.00
76404;BME280;65232;48.358;2.122;2024-03-06T00:11:01;101064.44;;;6.92;100.00
76404;BME280;65232;48.358;2.122;2024-03-06T00:11:27;101058.00;;;6.82;100.00
76404;BME280;65232;48.358;2.122;2024-03-06T00:11:53;101061.19;;;7.01;100.00
76404;BME280;65232;48.358;2.122;2024-03-06T00:12:18;101058.34;;;6.90;100.00
76404;BME280;65232;48.358;2.122;2024-03-06T00:12:44;101059.50;;;6.86;100.00
76404;BME280;65232;48.358;2.122;2024-03-06T00:13:09;101062.66;;;6.78;100.00
76404;BME280;65232;48.358;2.122;2024-03-06T00:13:35;101064.81;;;6.71;100.00
76404;BME280;65232;48.358;2.122;2024-03-06T00:14:00;101060.38;;;6.72;100.00
76404;BME280;65232;48.358;2.122;2024-03-06T00:14:26;101060.94;;;6.77;100.00
76404;BME280;65232;48.358;2.122;2024-03-06T00:14:51;101067.47;;;6.86;100.00
76404;BME280;65232;48.358;2.122;2024-03-06T00:15:17;101061.50;;;6.96;100.00
76404;BME280;65232;48.358;2.122;2024-03-06T00:15:42;101072.13;;;6.96;100.00
76404;BME280;65232;48.358;2.122;2024-03-06T00:16:08;101061.50;;;6.96;100.00
76404;BME280;65232;48.358;2.122;2024-03-06T00:16:33;101058.84;;;6.96;100.00
76404;BME280;65232;48.358;2.122;2024-03-06T00:16:59;101066.16;;;6.93;100.00
76404;BME280;65232;48.358;2.122;2024-03-06T00:17:24;101068.25;;;6.88;100.00
76404;BME280;65232;48.358;2.122;2024-03-06T00:17:50;101065.84;;;6.83;100.00
76404;BME280;65232;48.358;2.122;2024-03-06T00:18:15;101071.41;;;6.80;100.00
76404;BME280;65232;48.358;2.122;2024-03-06T00:18:41;101066.16;;;6.79;100.00
76404;BME280;65232;48.358;2.122;2024-03-06T00:19:06;101072.25;;;6.81;100.00
76404;BME280;65232;48.358;2.122;2024-03-06T00:19:32;101071.00;;;6.86;100.00
76404;BME280;65232;48.358;2.122;2024-03-06T00:19:58;101072.03;;;6.84;100.00
76404;BME280;65232;48.358;2.122;2024-03-06T00:20:23;101064.66;;;6.75;100.00
76404;BME280;65232;48.358;2.122;2024-03-06T00:20:48;101066.44;;;6.74;100.00
76404;BME280;65232;48.358;2.122;2024-03-06T00:21:14;101067.13;;;6.78;100.00
76404;BME280;65232;48.358;2.122;2024-03-06T00:21:40;101071.59;;;6.77;100.00
76404;BME280;65232;48.358;2.122;2024-03-06T00:22:05;101068.06;;;6.77;100.00
76404;BME280;65232;48.358;2.122;2024-03-06T00:22:31;101069.78;;;6.78;100.00
76404;BME280;65232;48.358;2.122;2024-03-06T00:22:56;101065.13;;;6.81;100.00
76404;BME280;65232;48.358;2.122;2024-03-06T00:23:24;101065.84;;;6.83;100.00
76404;BME280;65232;48.358;2.122;2024-03-06T00:23:50;101060.84;;;6.79;100.00
76404;BME280;65232;48.358;2.122;2024-03-06T00:24:15;101067.03;;;6.79;100.00
76404;BME280;65232;48.358;2.122;2024-03-06T00:24:41;101073.28;;;6.78;100.00
76404;BME280;65232;48.358;2.122;2024-03-06T00:25:07;101068.44;;;6.85;100.00
76404;BME280;65232;48.358;2.122;2024-03-06T00:25:33;101066.41;;;7.02;100.00
76404;BME280;65232;48.358;2.122;2024-03-06T00:25:59;101069.34;;;6.98;100.00
76404;BME280;65232;48.358;2.122;2024-03-06T00:26:25;101074.69;;;6.98;100.00
76404;BME280;65232;48.358;2.122;2024-03-06T00:26:50;101074.13;;;6.93;100.00
76404;BME280;65232;48.358;2.122;2024-03-06T00:27:16;101068.91;;;6.91;100.00
76404;BME280;65232;48.358;2.122;2024-03-06T00:27:41;101075.09;;;6.92;100.00
76404;BME280;65232;48.358;2.122;2024-03-06T00:28:07;101076.88;;;6.91;100.00
76404;BME280;65232;48.358;2.122;2024-03-06T00:28:32;101078.41;;;6.95;100.00
76404;BME280;65232;48.358;2.122;2024-03-06T00:28:58;101075.09;;;6.92;100.00
76404;BME280;65232;48.358;2.122;2024-03-06T00:29:23;101071.19;;;6.83;100.00
76404;BME280;65232;48.358;2.122;2024-03-06T00:29:48;101083.34;;;6.87;100.00
76404;BME280;65232;48.358;2.122;2024-03-06T00:30:14;101078.69;;;6.91;100.00
76404;BME280;65232;48.358;2.122;2024-03-06T00:30:39;101073.56;;;6.88;100.00
76404;BME280;65232;48.358;2.122;2024-03-06T00:31:05;101070.13;;;6.86;100.00
76404;BME280;65232;48.358;2.122;2024-03-06T00:31:31;101076.22;;;6.88;100.00
76404;BME280;65232;48.358;2.122;2024-03-06T00:31:57;101068.91;;;6.91;100.00
76404;BME280;65232;48.358;2.122;2024-03-06T00:32:22;101077.47;;;6.82;100.00
76404;BME280;65232;48.358;2.122;2024-03-06T00:32:48;101074.34;;;6.76;100.00
76404;BME280;65232;48.358;2.122;2024-03-06T00:33:14;101067.97;;;6.78;100.00
76404;BME280;65232;48.358;2.122;2024-03-06T00:33:40;101074.06;;;6.80;100.00
76404;BME280;65232;48.358;2.122;2024-03-06T00:34:05;101074.06;;;6.80;100.00
76404;BME280;65232;48.358;2.122;2024-03-06T00:34:31;101067.78;;;6.81;100.00
76404;BME280;65232;48.358;2.122;2024-03-06T00:34:56;101077.75;;;6.78;100.00
76404;BME280;65232;48.358;2.122;2024-03-06T00:35:22;101075.19;;;6.76;100.00
76404;BME280;65232;48.358;2.122;2024-03-06T00:35:47;101079.38;;;6.80;100.00
76404;BME280;65232;48.358;2.122;2024-03-06T00:36:13;101074.69;;;6.84;100.00
76404;BME280;65232;48.358;2.122;2024-03-06T00:36:39;101079.06;;;6.85;100.00
76404;BME280;65232;48.358;2.122;2024-03-06T00:37:04;101078.13;;;6.86;100.00
76404;BME280;65232;48.358;2.122;2024-03-06T00:37:30;101079.16;;;6.83;100.00
76404;BME280;65232;48.358;2.122;2024-03-06T00:37:55;101083.34;;;6.87;100.00
76404;BME280;65232;48.358;2.122;2024-03-06T00:38:21;101076.31;;;6.86;100.00
76404;BME280;65232;48.358;2.122;2024-03-06T00:38:46;101078.22;;;6.84;100.00
76404;BME280;65232;48.358;2.122;2024-03-06T00:39:13;101078.03;;;6.87;100.00
76404;BME280;65232;48.358;2.122;2024-03-06T00:39:41;101078.03;;;6.87;100.00
76404;BME280;65232;48.358;2.122;2024-03-06T00:40:07;101076.22;;;6.88;100.00
76404;BME280;65232;48.358;2.122;2024-03-06T00:40:33;101079.72;;;6.88;100.00
76404;BME280;65232;48.358;2.122;2024-03-06T00:40:58;101084.88;;;6.91;100.00
76404;BME280;65232;48.358;2.122;2024-03-06T00:41:23;101078.75;;;7.03;100.00
76404;BME280;65232;48.358;2.122;2024-03-06T00:41:49;101075.81;;;7.08;100.00
76404;BME280;65232;48.358;2.122;2024-03-06T00:42:14;101077.44;;;7.11;100.00
76404;BME280;65232;48.358;2.122;2024-03-06T00:42:40;101083.19;;;7.17;100.00
76404;BME280;65232;48.358;2.122;2024-03-06T00:43:07;101073.69;;;7.13;100.00
76404;BME280;65232;48.358;2.122;2024-03-06T00:43:33;101077.78;;;7.19;100.00
76404;BME280;65232;48.358;2.122;2024-03-06T00:43:58;101075.63;;;7.11;100.00
76404;BME280;65232;48.358;2.122;2024-03-06T00:44:23;101080.28;;;7.07;100.00
76404;BME280;65232;48.358;2.122;2024-03-06T00:44:49;101072.41;;;7.06;100.00
76404;BME280;65232;48.358;2.122;2024-03-06T00:45:14;101079.53;;;7.05;100.00
76404;BME280;65232;48.358;2.122;2024-03-06T00:45:40;101083.72;;;6.95;100.00
76404;BME280;65232;48.358;2.122;2024-03-06T00:46:05;101086.47;;;6.94;100.00
76404;BME280;65232;48.358;2.122;2024-03-06T00:46:31;101082.03;;;6.94;100.00
76404;BME280;65232;48.358;2.122;2024-03-06T00:46:56;101079.53;;;6.91;100.00
76404;BME280;65232;48.358;2.122;2024-03-06T00:47:22;101085.06;;;6.88;100.00
76404;BME280;65232;48.358;2.122;2024-03-06T00:47:47;101077.47;;;6.82;100.00
76404;BME280;65232;48.358;2.122;2024-03-06T00:48:13;101080.41;;;6.78;100.00
76404;BME280;65232;48.358;2.122;2024-03-06T00:48:38;101087.53;;;6.77;100.00
76404;BME280;65232;48.358;2.122;2024-03-06T00:49:04;101083.44;;;6.86;100.00
76404;BME280;65232;48.358;2.122;2024-03-06T00:49:29;101076.72;;;6.80;100.00
76404;BME280;65232;48.358;2.122;2024-03-06T00:49:55;101076.50;;;6.83;100.00
76404;BME280;65232;48.358;2.122;2024-03-06T00:50:20;101085.56;;;6.81;100.00
76404;BME280;65232;48.358;2.122;2024-03-06T00:50:47;101082.81;;;6.82;100.00
76404;BME280;65232;48.358;2.122;2024-03-06T00:51:12;101082.56;;;6.85;100.00
76404;BME280;65232;48.358;2.122;2024-03-06T00:51:38;101081.72;;;6.85;100.00
76404;BME280;65232;48.358;2.122;2024-03-06T00:52:04;101081.09;;;6.81;100.00
76404;BME280;65232;48.358;2.122;2024-03-06T00:52:29;101080.22;;;6.81;100.00
76404;BME280;65232;48.358;2.122;2024-03-06T00:52:55;101082.03;;;6.80;100.00
76404;BME280;65232;48.358;2.122;2024-03-06T00:53:20;101082.03;;;6.80;100.00
76404;BME280;65232;48.358;2.122;2024-03-06T00:53:46;101085.91;;;6.75;100.00
76404;BME280;65232;48.358;2.122;2024-03-06T00:54:12;101075.00;;;6.79;100.00
76404;BME280;65232;48.358;2.122;2024-03-06T00:54:37;101082.50;;;6.87;100.00
76404;BME280;65232;48.358;2.122;2024-03-06T00:55:03;101085.16;;;6.87;100.00
76404;BME280;65232;48.358;2.122;2024-03-06T00:55:28;101081.53;;;7.02;100.00
76404;BME280;65232;48.358;2.122;2024-03-06T00:55:54;101079.44;;;7.07;100.00
76404;BME280;65232;48.358;2.122;2024-03-06T00:56:19;101079.81;;;7.01;100.00
76404;BME280;65232;48.358;2.122;2024-03-06T00:56:44;101076.88;;;6.91;100.00
76404;BME280;65232;48.358;2.122;2024-03-06T00:57:10;101075.00;;;6.93;100.00
76404;BME280;65232;48.358;2.122;2024-03-06T00:57:35;101085.53;;;6.95;100.00
76404;BME280;65232;48.358;2.122;2024-03-06T00:58:01;101085.91;;;6.89;100.00
76404;BME280;65232;48.358;2.122;2024-03-06T00:58:27;101088.75;;;6.86;100.00
76404;BME280;65232;48.358;2.122;2024-03-06T00:58:52;101085.72;;;6.92;100.00
76404;BME280;65232;48.358;2.122;2024-03-06T00:59:17;101087.53;;;6.91;100.00
76404;BME280;65232;48.358;2.122;2024-03-06T00:59:43;101084.88;;;6.91;100.00
76404;BME280;65232;48.358;2.122;2024-03-06T01:00:09;101085.63;;;6.93;100.00
76404;BME280;65232;48.358;2.122;2024-03-06T01:00:35;101090.19;;;6.91;100.00
76404;BME280;65232;48.358;2.122;2024-03-06T01:01:01;101086.75;;;6.89;100.00
76404;BME280;65232;48.358;2.122;2024-03-06T01:01:26;101084.09;;;6.89;100.00
76404;BME280;65232;48.358;2.122;2024-03-06T01:01:52;101080.13;;;6.82;100.00
76404;BME280;65232;48.358;2.122;2024-03-06T01:02:21;101085.06;;;6.88;100.00
76404;BME280;65232;48.358;2.122;2024-03-06T01:02:46;101080.69;;;6.87;100.00
76404;BME280;65232;48.358;2.122;2024-03-06T01:03:12;101079.81;;;6.87;100.00
76404;BME280;65232;48.358;2.122;2024-03-06T01:03:38;101088.00;;;6.84;100.00
76404;BME280;65232;48.358;2.122;2024-03-06T01:04:04;101087.53;;;6.77;100.00
76404;BME280;65232;48.358;2.122;2024-03-06T01:04:30;101085.75;;;6.78;100.00
76404;BME280;65232;48.358;2.122;2024-03-06T01:04:55;101080.50;;;6.90;100.00
76404;BME280;65232;48.358;2.122;2024-03-06T01:05:21;101079.03;;;6.99;100.00
76404;BME280;65232;48.358;2.122;2024-03-06T01:05:47;101084.88;;;6.91;100.00
76404;BME280;65232;48.358;2.122;2024-03-06T01:06:12;101083.25;;;6.89;100.00
76404;BME280;65232;48.358;2.122;2024-03-06T01:06:38;101088.00;;;6.84;100.00
76404;BME280;65232;48.358;2.122;2024-03-06T01:07:03;101085.75;;;6.78;100.00
76404;BME280;65232;48.358;2.122;2024-03-06T01:07:30;101095.03;;;6.70;100.00
76404;BME280;65232;48.358;2.122;2024-03-06T01:07:55;101089.34;;;6.62;100.00
76404;BME280;65232;48.358;2.122;2024-03-06T01:08:22;101088.31;;;6.65;100.00
76404;BME280;65232;48.358;2.122;2024-03-06T01:08:50;101097.13;;;6.65;100.00
76404;BME280;65232;48.358;2.122;2024-03-06T01:09:15;101079.47;;;6.64;100.00
76404;BME280;65232;48.358;2.122;2024-03-06T01:09:40;101087.34;;;6.66;100.00
76404;BME280;65232;48.358;2.122;2024-03-06T01:10:07;101089.16;;;6.65;100.00
76404;BME280;65232;48.358;2.122;2024-03-06T01:10:33;101081.56;;;6.73;100.00
76404;BME280;65232;48.358;2.122;2024-03-06T01:10:59;101087.25;;;6.82;100.00
76404;BME280;65232;48.358;2.122;2024-03-06T01:11:24;101087.34;;;6.80;100.00
76404;BME280;65232;48.358;2.122;2024-03-06T01:11:51;101089.53;;;6.88;100.00
76404;BME280;65232;48.358;2.122;2024-03-06T01:12:17;101086.84;;;6.88;100.00
76404;BME280;65232;48.358;2.122;2024-03-06T01:12:43;101086.59;;;6.78;100.00
76404;BME280;65232;48.358;2.122;2024-03-06T01:13:11;101082.41;;;6.74;100.00
76404;BME280;65232;48.358;2.122;2024-03-06T01:13:37;101083.84;;;6.80;100.00
76404;BME280;65232;48.358;2.122;2024-03-06T01:14:02;101087.34;;;6.80;100.00
76404;BME280;65232;48.358;2.122;2024-03-06T01:14:28;101084.69;;;6.80;100.00
76404;BME280;65232;48.358;2.122;2024-03-06T01:14:54;101080.13;;;6.82;100.00
76404;BME280;65232;48.358;2.122;2024-03-06T01:15:20;101084.69;;;6.80;100.00
76404;BME280;65232;48.358;2.122;2024-03-06T01:15:45;101084.97;;;6.76;100.00
76404;BME280;65232;48.358;2.122;2024-03-06T01:16:11;101077.56;;;6.81;100.00
76404;BME280;65232;48.358;2.122;2024-03-06T01:16:36;101084.13;;;6.75;100.00
76404;BME280;65232;48.358;2.122;2024-03-06T01:17:02;101077.09;;;6.74;100.00
76404;BME280;65232;48.358;2.122;2024-03-06T01:17:28;101082.41;;;6.74;100.00
76404;BME280;65232;48.358;2.122;2024-03-06T01:17:53;101081.72;;;6.70;100.00
76404;BME280;65232;48.358;2.122;2024-03-06T01:18:18;101084.50;;;6.69;100.00
76404;BME280;65232;48.358;2.122;2024-03-06T01:18:44;101083.16;;;6.76;100.00
76404;BME280;65232;48.358;2.122;2024-03-06T01:19:09;101078.63;;;6.78;100.00
76404;BME280;65232;48.358;2.122;2024-03-06T01:19:35;101089.91;;;6.82;100.00
76404;BME280;65232;48.358;2.122;2024-03-06T01:20:00;101082.03;;;6.80;100.00
76404;BME280;65232;48.358;2.122;2024-03-06T01:20:26;101092.94;;;6.76;100.00
76404;BME280;65232;48.358;2.122;2024-03-06T01:20:52;101086.09;;;6.71;100.00
76404;BME280;65232;48.358;2.122;2024-03-06T01:21:17;101089.06;;;6.67;100.00
76404;BME280;65232;48.358;2.122;2024-03-06T01:21:42;101088.59;;;6.75;100.00
76404;BME280;65232;48.358;2.122;2024-03-06T01:22:08;101090.38;;;6.74;100.00
76404;BME280;65232;48.358;2.122;2024-03-06T01:22:34;101089.16;;;6.80;100.00
76404;BME280;65232;48.358;2.122;2024-03-06T01:22:59;101084.00;;;6.91;100.00
76404;BME280;65232;48.358;2.122;2024-03-06T01:23:25;101091.97;;;7.05;100.00
76404;BME280;65232;48.358;2.122;2024-03-06T01:23:50;101083.81;;;6.94;100.00
76404;BME280;65232;48.358;2.122;2024-03-06T01:24:16;101086.47;;;6.94;100.00
76404;BME280;65232;48.358;2.122;2024-03-06T01:24:41;101085.34;;;6.84;100.00
76404;BME280;65232;48.358;2.122;2024-03-06T01:25:07;101077.25;;;6.85;100.00
76404;BME280;65232;48.358;2.122;2024-03-06T01:25:32;101082.50;;;6.87;100.00
76404;BME280;65232;48.358;2.122;2024-03-06T01:25:57;101088.13;;;6.82;100.00
76404;BME280;65232;48.358;2.122;2024-03-06T01:26:23;101085.91;;;6.75;100.00
76404;BME280;65232;48.358;2.122;2024-03-06T01:26:48;101087.06;;;6.70;100.00
76404;BME280;65232;48.358;2.122;2024-03-06T01:27:16;101082.78;;;6.68;100.00
76404;BME280;65232;48.358;2.122;2024-03-06T01:27:41;101086.88;;;6.73;100.00
76404;BME280;65232;48.358;2.122;2024-03-06T01:28:07;101092.19;;;6.73;100.00
76404;BME280;65232;48.358;2.122;2024-03-06T01:28:32;101085.56;;;6.81;100.00
76404;BME280;65232;48.358;2.122;2024-03-06T01:28:58;101088.28;;;6.93;100.00
76404;BME280;65232;48.358;2.122;2024-03-06T01:29:23;101090.28;;;6.90;100.00
76404;BME280;65232;48.358;2.122;2024-03-06T01:29:49;101075.47;;;6.86;100.00
76404;BME280;65232;48.358;2.122;2024-03-06T01:30:14;101086.19;;;6.84;100.00
76404;BME280;65232;48.358;2.122;2024-03-06T01:30:40;101084.38;;;6.85;100.00
76404;BME280;65232;48.358;2.122;2024-03-06T01:31:05;101084.59;;;6.82;100.00
76404;BME280;65232;48.358;2.122;2024-03-06T01:31:31;101090.28;;;6.76;100.00
76404;BME280;65232;48.358;2.122;2024-03-06T01:31:57;101088.41;;;6.78;100.00
76404;BME280;65232;48.358;2.122;2024-03-06T01:32:22;101079.56;;;6.77;100.00
76404;BME280;65232;48.358;2.122;2024-03-06T01:32:47;101085.75;;;6.78;100.00
76404;BME280;65232;48.358;2.122;2024-03-06T01:33:13;101083.44;;;6.71;100.00
76404;BME280;65232;48.358;2.122;2024-03-06T01:33:38;101090.28;;;6.76;100.00
76404;BME280;65232;48.358;2.122;2024-03-06T01:34:03;101082.97;;;6.79;100.00
76404;BME280;65232;48.358;2.122;2024-03-06T01:34:29;101086.97;;;6.72;100.00
76404;BME280;65232;48.358;2.122;2024-03-06T01:34:54;101090.28;;;6.76;100.00
76404;BME280;65232;48.358;2.122;2024-03-06T01:35:20;101081.38;;;6.77;100.00
76404;BME280;65232;48.358;2.122;2024-03-06T01:35:45;101086.41;;;6.67;100.00
76404;BME280;65232;48.358;2.122;2024-03-06T01:36:11;101086.28;;;6.83;100.00
76404;BME280;65232;48.358;2.122;2024-03-06T01:36:36;101083.94;;;6.78;100.00
76404;BME280;65232;48.358;2.122;2024-03-06T01:37:01;101081.09;;;6.81;100.00
76404;BME280;65232;48.358;2.122;2024-03-06T01:37:27;101086.50;;;6.80;100.00
76404;BME280;65232;48.358;2.122;2024-03-06T01:37:52;101082.88;;;6.81;100.00
76404;BME280;65232;48.358;2.122;2024-03-06T01:38:17;101079.91;;;6.85;100.00
76404;BME280;65232;48.358;2.122;2024-03-06T01:38:43;101085.06;;;6.88;100.00
76404;BME280;65232;48.358;2.122;2024-03-06T01:39:11;101077.47;;;6.68;100.00
76404;BME280;65232;48.358;2.122;2024-03-06T01:39:36;101082.69;;;6.69;100.00
76404;BME280;65232;48.358;2.122;2024-03-06T01:40:02;101088.66;;;6.73;100.00
76404;BME280;65232;48.358;2.122;2024-03-06T01:40:30;101080.03;;;6.69;100.00
76404;BME280;65232;48.358;2.122;2024-03-06T01:40:56;101086.69;;;6.77;100.00
76404;BME280;65232;48.358;2.122;2024-03-06T01:41:21;101082.88;;;6.81;100.00
76404;BME280;65232;48.358;2.122;2024-03-06T01:41:48;101081.63;;;6.72;100.00
76404;BME280;65232;48.358;2.122;2024-03-06T01:42:17;101086.97;;;6.72;100.00
76404;BME280;65232;48.358;2.122;2024-03-06T01:42:43;101079.56;;;6.77;100.00
76404;BME280;65232;48.358;2.122;2024-03-06T01:43:18;101075.88;;;6.65;100.00
76404;BME280;65232;48.358;2.122;2024-03-06T01:43:44;101086.50;;;6.65;100.00
76404;BME280;65232;48.358;2.122;2024-03-06T01:44:09;101090.66;;;6.69;100.00
76404;BME280;65232;48.358;2.122;2024-03-06T01:44:35;101086.00;;;6.73;100.00
76404;BME280;65232;48.358;2.122;2024-03-06T01:45:02;101091.50;;;6.70;100.00
76404;BME280;65232;48.358;2.122;2024-03-06T01:45:27;101078.31;;;6.68;100.00
76404;BME280;65232;48.358;2.122;2024-03-06T01:45:53;101090.56;;;6.71;100.00
76404;BME280;65232;48.358;2.122;2024-03-06T01:46:19;101082.91;;;6.66;100.00
76404;BME280;65232;48.358;2.122;2024-03-06T01:46:45;101086.78;;;6.61;100.00
76404;BME280;65232;48.358;2.122;2024-03-06T01:47:10;101082.31;;;6.61;100.00
76404;BME280;65232;48.358;2.122;2024-03-06T01:47:35;101091.16;;;6.62;100.00
76404;BME280;65232;48.358;2.122;2024-03-06T01:48:01;101088.41;;;6.63;100.00
76404;BME280;65232;48.358;2.122;2024-03-06T01:48:28;101092.09;;;6.61;100.00
76404;BME280;65232;48.358;2.122;2024-03-06T01:48:53;101083.75;;;6.67;100.00
76404;BME280;65232;48.358;2.122;2024-03-06T01:49:19;101082.13;;;6.64;100.00
76404;BME280;65232;48.358;2.122;2024-03-06T01:49:46;101090.19;;;6.63;100.00
76404;BME280;65232;48.358;2.122;2024-03-06T01:50:11;101085.84;;;6.62;100.00
76404;BME280;65232;48.358;2.122;2024-03-06T01:50:37;101080.78;;;6.57;100.00
76404;BME280;65232;48.358;2.122;2024-03-06T01:51:03;101088.00;;;6.55;100.00
76404;BME280;65232;48.358;2.122;2024-03-06T01:51:31;101088.69;;;6.59;100.00
76404;BME280;65232;48.358;2.122;2024-03-06T01:51:57;101085.91;;;6.60;100.00
76404;BME280;65232;48.358;2.122;2024-03-06T01:52:25;101083.34;;;6.59;100.00
76404;BME280;65232;48.358;2.122;2024-03-06T01:52:51;101087.63;;;6.61;100.00
76404;BME280;65232;48.358;2.122;2024-03-06T01:53:17;101086.78;;;6.61;100.00
76404;BME280;65232;48.358;2.122;2024-03-06T01:53:43;101084.13;;;6.61;100.00
76404;BME280;65232;48.358;2.122;2024-03-06T01:54:09;101082.78;;;6.54;100.00
76404;BME280;65232;48.358;2.122;2024-03-06T01:54:35;101090.28;;;6.61;100.00
76404;BME280;65232;48.358;2.122;2024-03-06T01:55:01;101084.97;;;6.61;100.00
76404;BME280;65232;48.358;2.122;2024-03-06T01:55:26;101088.41;;;6.63;100.00
76404;BME280;65232;48.358;2.122;2024-03-06T01:55:52;101092.19;;;6.59;100.00
76404;BME280;65232;48.358;2.122;2024-03-06T01:56:18;101083.44;;;6.57;100.00
76404;BME280;65232;48.358;2.122;2024-03-06T01:56:46;101085.91;;;6.60;100.00
76404;BME280;65232;48.358;2.122;2024-03-06T01:57:11;101081.66;;;6.58;100.00
76404;BME280;65232;48.358;2.122;2024-03-06T01:57:39;101085.91;;;6.60;100.00
76404;BME280;65232;48.358;2.122;2024-03-06T01:58:05;101082.03;;;6.52;100.00
76404;BME280;65232;48.358;2.122;2024-03-06T01:58:31;101086.19;;;6.56;100.00
76404;BME280;65232;48.358;2.122;2024-03-06T01:58:59;101086.41;;;6.53;100.00
76404;BME280;65232;48.358;2.122;2024-03-06T01:59:25;101076.31;;;6.58;100.00
76404;BME280;65232;48.358;2.122;2024-03-06T01:59:50;101092.47;;;6.55;100.00
76404;BME280;65232;48.358;2.122;2024-03-06T02:00:16;101086.00;;;6.59;100.00
76404;BME280;65232;48.358;2.122;2024-03-06T02:00:42;101076.16;;;6.61;100.00
76404;BME280;65232;48.358;2.122;2024-03-06T02:01:10;101078.03;;;6.59;100.00
76404;BME280;65232;48.358;2.122;2024-03-06T02:01:36;101081.56;;;6.59;100.00
76404;BME280;65232;48.358;2.122;2024-03-06T02:02:02;101084.88;;;6.63;100.00
76404;BME280;65232;48.358;2.122;2024-03-06T02:02:28;101080.69;;;6.59;100.00
76404;BME280;65232;48.358;2.122;2024-03-06T02:02:54;101074.72;;;6.55;100.00
76404;BME280;65232;48.358;2.122;2024-03-06T02:03:20;101081.47;;;6.47;100.00
76404;BME280;65232;48.358;2.122;2024-03-06T02:03:45;101077.25;;;6.43;100.00
76404;BME280;65232;48.358;2.122;2024-03-06T02:04:12;101089.81;;;6.55;100.00
76404;BME280;65232;48.358;2.122;2024-03-06T02:04:38;101081.56;;;6.59;100.00
76404;BME280;65232;48.358;2.122;2024-03-06T02:05:03;101086.88;;;6.59;100.00
76404;BME280;65232;48.358;2.122;2024-03-06T02:05:29;101084.22;;;6.59;100.00
76404;BME280;65232;48.358;2.122;2024-03-06T02:05:56;101079.47;;;6.64;100.00
76404;BME280;65232;48.358;2.122;2024-03-06T02:06:23;101078.03;;;6.59;100.00
76404;BME280;65232;48.358;2.122;2024-03-06T02:06:49;101084.03;;;6.62;100.00
76404;BME280;65232;48.358;2.122;2024-03-06T02:07:16;101084.03;;;6.62;100.00
76404;BME280;65232;48.358;2.122;2024-03-06T02:07:42;101077.38;;;6.55;100.00
76404;BME280;65232;48.358;2.122;2024-03-06T02:08:09;101074.72;;;6.55;100.00
76404;BME280;65232;48.358;2.122;2024-03-06T02:08:35;101080.34;;;6.51;100.00
76404;BME280;65232;48.358;2.122;2024-03-06T02:09:00;101075.88;;;6.51;100.00
76404;BME280;65232;48.358;2.122;2024-03-06T02:09:26;101078.44;;;6.53;100.00
76404;BME280;65232;48.358;2.122;2024-03-06T02:09:51;101080.97;;;6.54;100.00
76404;BME280;65232;48.358;2.122;2024-03-06T02:10:17;101077.47;;;6.54;100.00
76404;BME280;65232;48.358;2.122;2024-03-06T02:10:44;101086.09;;;6.57;100.00
76404;BME280;65232;48.358;2.122;2024-03-06T02:11:09;101076.31;;;6.58;100.00
76404;BME280;65232;48.358;2.122;2024-03-06T02:11:36;101076.81;;;6.64;100.00
76404;BME280;65232;48.358;2.122;2024-03-06T02:12:01;101075.97;;;6.64;100.00
76404;BME280;65232;48.358;2.122;2024-03-06T02:12:26;101077.84;;;6.62;100.00
76404;BME280;65232;48.358;2.122;2024-03-06T02:12:54;101076.91;;;6.63;100.00
76404;BME280;65232;48.358;2.122;2024-03-06T02:13:19;101081.75;;;6.56;100.00
76404;BME280;65232;48.358;2.122;2024-03-06T02:13:46;101080.25;;;6.52;100.00
76404;BME280;65232;48.358;2.122;2024-03-06T02:14:12;101081.75;;;6.56;100.00
76404;BME280;65232;48.358;2.122;2024-03-06T02:14:37;101073.66;;;6.58;100.00
76404;BME280;65232;48.358;2.122;2024-03-06T02:15:03;101076.81;;;6.50;100.00